createdAt,value
2019-05-17T00:01:16.662Z,76.59
2019-05-17T00:03:47.103Z,76.33
2019-05-17T00:06:16.884Z,76.59
2019-05-17T00:08:47.308Z,76.62
2019-05-17T00:11:16.801Z,76.41
2019-05-17T00:13:46.612Z,76.55
2019-05-17T00:16:17.281Z,76.28
2019-05-17T00:18:46.382Z,76.01
2019-05-17T00:21:16.921Z,76.04
2019-05-17T00:23:46.927Z,76.19
2019-05-17T00:26:16.438Z,76.19
2019-05-17T00:28:46.936Z,75.48
2019-05-17T00:31:17.126Z,74.96
2019-05-17T00:33:47.136Z,74.71
2019-05-17T00:36:17.897Z,75.11
2019-05-17T00:38:50.978Z,75.90
2019-05-17T00:41:17.655Z,76.34
2019-05-17T00:43:46.299Z,76.12
2019-05-17T00:46:17.088Z,75.99
2019-05-17T00:48:46.607Z,75.54
2019-05-17T00:51:16.673Z,75.68
2019-05-17T00:53:46.818Z,75.46
2019-05-17T00:56:17.101Z,75.58
2019-05-17T00:58:47.691Z,75.48
2019-05-17T01:01:16.491Z,75.52
2019-05-17T01:03:45.023Z,75.82
2019-05-17T01:06:13.524Z,75.99
2019-05-17T01:08:42.070Z,76.30
2019-05-17T01:11:10.560Z,76.70
2019-05-17T01:13:39.212Z,76.89
2019-05-17T01:16:07.724Z,77.40
2019-05-17T01:18:36.326Z,77.37
2019-05-17T01:21:06.425Z,76.84
2019-05-17T01:23:36.250Z,77.04
2019-05-17T01:26:07.324Z,76.93
2019-05-17T01:28:36.328Z,77.26
2019-05-17T01:31:06.635Z,77.47
2019-05-17T01:33:36.771Z,77.93
2019-05-17T01:36:06.790Z,77.97
2019-05-17T01:38:37.667Z,77.61
2019-05-17T01:41:07.028Z,78.16
2019-05-17T01:43:36.783Z,78.82
2019-05-17T01:46:06.714Z,79.13
2019-05-17T01:48:36.584Z,78.89
2019-05-17T01:51:07.315Z,78.17
2019-05-17T01:53:36.501Z,78.37
2019-05-17T01:56:06.332Z,78.66
2019-05-17T01:58:36.539Z,78.58
2019-05-17T02:01:07.388Z,78.77
2019-05-17T02:03:37.550Z,79.44
2019-05-17T02:06:07.473Z,79.49
2019-05-17T02:08:37.196Z,79.25
2019-05-17T02:11:06.865Z,79.47
2019-05-17T02:13:37.603Z,79.06
2019-05-17T02:16:07.180Z,79.16
2019-05-17T02:18:37.256Z,79.50
2019-05-17T02:21:06.536Z,79.34
2019-05-17T02:23:37.206Z,79.61
2019-05-17T02:26:06.626Z,79.64
2019-05-17T02:28:35.307Z,79.18
2019-05-17T02:31:04.388Z,79.25
2019-05-17T02:33:33.478Z,79.01
2019-05-17T02:36:02.937Z,79.23
2019-05-17T02:38:33.371Z,79.20
2019-05-17T02:41:03.223Z,78.75
2019-05-17T02:43:33.481Z,79.40
2019-05-17T02:46:03.643Z,79.95
2019-05-17T02:48:33.722Z,80.24
2019-05-17T02:51:03.502Z,80.45
2019-05-17T02:53:33.629Z,80.27
2019-05-17T02:56:03.262Z,80.10
2019-05-17T02:58:33.127Z,80.05
2019-05-17T03:01:03.639Z,79.66
2019-05-17T03:03:32.497Z,80.32
2019-05-17T03:06:02.997Z,80.98
2019-05-17T03:08:34.037Z,81.35
2019-05-17T03:11:03.276Z,81.11
2019-05-17T03:13:32.844Z,81.10
2019-05-17T03:16:03.307Z,81.09
2019-05-17T03:18:33.318Z,80.79
2019-05-17T03:21:03.835Z,80.45
2019-05-17T03:23:32.892Z,80.53
2019-05-17T03:26:03.531Z,80.47
2019-05-17T03:28:33.674Z,80.88
2019-05-17T03:31:08.047Z,81.41
2019-05-17T03:33:35.985Z,81.14
2019-05-17T03:36:06.246Z,81.33
2019-05-17T03:38:34.016Z,81.29
2019-05-17T03:41:13.445Z,81.27
2019-05-17T03:43:35.117Z,80.93
2019-05-17T03:46:03.421Z,81.01
2019-05-17T03:48:33.293Z,80.98
2019-05-17T03:51:02.764Z,81.36
2019-05-17T03:53:33.525Z,81.20
2019-05-17T03:56:02.998Z,81.17
2019-05-17T03:58:33.521Z,81.07
2019-05-17T04:01:04.222Z,80.84
2019-05-17T04:03:35.588Z,80.95
2019-05-17T04:06:03.922Z,81.11
2019-05-17T04:08:34.314Z,80.85
2019-05-17T04:11:20.634Z,80.67
2019-05-17T04:13:34.044Z,80.44
2019-05-17T04:16:07.868Z,80.65
2019-05-17T04:18:33.676Z,80.60
2019-05-17T04:21:03.423Z,80.67
2019-05-17T04:23:33.834Z,80.99
2019-05-17T04:26:04.207Z,81.50
2019-05-17T04:28:33.650Z,81.56
2019-05-17T04:31:02.944Z,81.69
2019-05-17T04:33:33.693Z,81.81
2019-05-17T04:36:02.692Z,82.46
2019-05-17T04:38:33.166Z,82.78
2019-05-17T04:41:03.339Z,82.20
2019-05-17T04:43:33.431Z,82.50
2019-05-17T04:46:03.015Z,83.03
2019-05-17T04:48:34.937Z,83.32
2019-05-17T04:51:03.519Z,81.81
2019-05-17T04:53:32.980Z,81.70
2019-05-17T04:56:03.158Z,80.70
2019-05-17T04:58:33.454Z,79.98
2019-05-17T05:01:04.024Z,80.53
2019-05-17T05:03:32.819Z,81.10
2019-05-17T05:06:02.995Z,81.04
2019-05-17T05:08:33.094Z,81.38
2019-05-17T05:11:04.114Z,81.56
2019-05-17T05:13:33.346Z,82.09
2019-05-17T05:16:03.444Z,81.68
2019-05-17T05:18:34.574Z,81.72
2019-05-17T05:21:07.737Z,81.21
2019-05-17T05:23:36.259Z,81.15
2019-05-17T05:26:04.905Z,80.98
2019-05-17T05:28:33.378Z,80.75
2019-05-17T05:31:02.203Z,80.67
2019-05-17T05:33:33.496Z,79.94
2019-05-17T05:36:02.435Z,80.01
2019-05-17T05:38:32.076Z,80.12
2019-05-17T05:41:01.876Z,80.26
2019-05-17T05:43:32.748Z,80.17
2019-05-17T05:46:02.591Z,79.61
2019-05-17T05:48:32.690Z,79.68
2019-05-17T05:51:03.487Z,79.98
2019-05-17T05:53:32.571Z,80.21
2019-05-17T05:56:03.236Z,80.19
2019-05-17T05:58:32.269Z,80.33
2019-05-17T06:01:02.335Z,80.51
2019-05-17T06:03:32.079Z,80.44
2019-05-17T06:06:01.879Z,80.00
2019-05-17T06:08:32.275Z,79.97
2019-05-17T06:11:02.157Z,79.64
2019-05-17T06:13:32.816Z,79.74
2019-05-17T06:16:02.989Z,80.08
2019-05-17T06:18:31.908Z,79.72
2019-05-17T06:21:02.686Z,79.89
2019-05-17T06:44:26.919Z,77.71
2019-05-17T06:46:56.705Z,77.38
2019-05-17T06:49:29.050Z,76.88
2019-05-17T06:52:03.187Z,76.34
2019-05-17T06:54:34.557Z,75.80
2019-05-17T06:57:06.303Z,75.50
2019-05-17T06:59:36.704Z,75.85
2019-05-17T07:02:10.428Z,75.20
2019-05-17T07:04:41.714Z,75.43
2019-05-17T07:07:32.494Z,75.10
2019-05-17T07:13:15.527Z,74.03
2019-05-17T07:27:41.271Z,69.29
2019-05-17T07:30:10.029Z,68.73
2019-05-17T07:32:41.630Z,69.49
2019-05-17T07:35:19.776Z,68.36
2019-05-17T07:37:53.417Z,67.50
2019-05-17T07:40:26.051Z,66.76
2019-05-17T07:43:10.176Z,66.97
2019-05-17T07:45:30.835Z,66.90
2019-05-17T07:48:00.153Z,66.39
2019-05-17T07:50:29.377Z,65.46
2019-05-17T07:53:00.490Z,65.42
2019-05-17T07:55:30.290Z,64.90
2019-05-17T07:58:00.230Z,64.80
2019-05-17T08:00:30.496Z,64.67
2019-05-17T08:02:59.949Z,64.53
2019-05-17T08:05:32.495Z,62.81
2019-05-17T08:08:01.080Z,62.90
2019-05-17T08:10:29.859Z,62.56
2019-05-17T08:12:59.899Z,60.86
2019-05-17T08:15:30.436Z,61.80
2019-05-17T08:18:01.645Z,60.89
2019-05-17T08:20:29.930Z,59.71
2019-05-17T08:22:59.557Z,59.82
2019-05-17T08:25:30.365Z,59.39
2019-05-17T08:27:59.730Z,59.77
2019-05-17T08:30:30.494Z,58.77
2019-05-17T08:38:50.296Z,56.98
2019-05-17T08:41:35.605Z,55.89
2019-05-17T08:44:34.144Z,55.17
2019-05-17T08:47:03.276Z,55.27
2019-05-17T08:49:35.143Z,54.87
2019-05-17T08:52:03.707Z,54.65
2019-05-17T08:54:32.259Z,54.38
2019-05-17T08:57:02.917Z,53.82
2019-05-17T08:59:33.083Z,54.58
2019-05-17T09:02:03.063Z,55.12
2019-05-17T09:04:36.520Z,55.36
2019-05-17T09:07:12.902Z,55.77
2019-05-17T09:10:01.505Z,55.44
2019-05-17T09:12:30.050Z,55.43
2019-05-17T09:15:00.429Z,55.46
2019-05-17T09:18:00.299Z,55.97
2019-05-17T09:20:30.818Z,54.97
2019-05-17T09:23:00.080Z,55.57
2019-05-17T09:25:32.163Z,55.64
2019-05-17T09:28:02.107Z,55.87
2019-05-17T09:30:33.503Z,55.95
2019-05-17T09:33:05.671Z,55.90
2019-05-17T09:35:34.067Z,55.25
2019-05-17T09:38:02.585Z,51.81
2019-05-17T09:40:32.979Z,51.20
2019-05-17T09:43:04.318Z,48.21
2019-05-17T09:45:32.975Z,37.51
2019-05-17T09:48:02.361Z,34.71
2019-05-17T09:50:30.871Z,34.05
2019-05-17T09:52:59.994Z,32.88
2019-05-17T09:55:30.099Z,32.08
2019-05-17T09:58:00.592Z,31.52
2019-05-17T10:00:29.671Z,30.81
2019-05-17T10:03:00.017Z,30.72
2019-05-17T10:05:31.095Z,31.02
2019-05-17T10:07:59.999Z,31.49
2019-05-17T10:10:28.861Z,31.27
2019-05-17T10:12:57.358Z,30.77
2019-05-17T10:15:26.033Z,30.43
2019-05-17T10:17:54.540Z,30.54
2019-05-17T10:20:23.093Z,30.19
2019-05-17T10:22:51.572Z,29.79
2019-05-17T10:25:20.227Z,29.50
2019-05-17T10:27:49.855Z,30.15
2019-05-17T10:30:20.915Z,29.90
2019-05-17T10:32:50.562Z,30.73
2019-05-17T10:35:19.931Z,29.57
2019-05-17T10:37:50.587Z,29.87
2019-05-17T10:40:20.851Z,29.96
2019-05-17T10:42:50.036Z,30.46
2019-05-17T10:45:19.869Z,29.81
2019-05-17T10:47:50.296Z,29.43
2019-05-17T10:50:20.717Z,29.21
2019-05-17T10:52:49.342Z,29.64
2019-05-17T10:55:20.012Z,29.33
2019-05-17T10:57:49.950Z,29.69
2019-05-17T11:00:19.777Z,30.28
2019-05-17T11:02:50.367Z,29.44
2019-05-17T11:05:20.178Z,30.21
2019-05-17T11:07:50.493Z,30.10
2019-05-17T11:10:19.552Z,28.56
2019-05-17T11:12:48.106Z,28.67
2019-05-17T11:15:16.695Z,28.34
2019-05-17T11:17:45.170Z,28.74
2019-05-17T11:20:14.045Z,29.02
2019-05-17T11:22:42.620Z,28.57
2019-05-17T11:25:11.477Z,28.88
2019-05-17T11:27:39.921Z,29.12
2019-05-17T11:30:08.759Z,29.14
2019-05-17T11:32:37.227Z,29.78
2019-05-17T11:35:06.254Z,28.46
2019-05-17T11:37:34.747Z,28.30
2019-05-17T11:40:08.008Z,28.24
2019-05-17T11:42:34.986Z,27.47
2019-05-17T11:45:03.603Z,27.45
2019-05-17T11:47:32.071Z,27.99
2019-05-17T11:50:00.669Z,27.59
2019-05-17T11:52:29.136Z,28.10
2019-05-17T11:54:57.618Z,27.56
2019-05-17T11:57:26.087Z,27.14
2019-05-17T11:59:54.653Z,27.71
2019-05-17T12:02:23.180Z,27.52
2019-05-17T12:04:51.620Z,27.39
2019-05-17T12:07:20.194Z,27.56
2019-05-17T12:09:48.687Z,27.43
2019-05-17T12:12:17.181Z,26.02
2019-05-17T12:14:45.685Z,27.05
2019-05-17T12:17:14.315Z,26.84
2019-05-17T12:19:42.795Z,26.90
2019-05-17T12:22:11.335Z,26.69
2019-05-17T12:24:39.897Z,26.16
2019-05-17T12:27:08.750Z,25.64
2019-05-17T12:29:37.254Z,25.43
2019-05-17T12:32:05.852Z,25.37
2019-05-17T12:34:34.352Z,25.94
2019-05-17T12:37:02.845Z,25.61
2019-05-17T12:39:31.431Z,25.52
2019-05-17T12:42:00.124Z,25.74
2019-05-17T12:44:28.760Z,24.86
2019-05-17T12:46:57.226Z,25.54
2019-05-17T12:49:25.718Z,25.42
2019-05-17T12:51:54.219Z,25.33
2019-05-17T12:54:22.710Z,25.76
2019-05-17T12:56:51.188Z,25.04
2019-05-17T12:59:19.681Z,25.77
2019-05-17T13:01:48.206Z,25.60
2019-05-17T13:04:16.752Z,25.31
2019-05-17T13:06:45.174Z,25.39
2019-05-17T13:09:13.698Z,25.56
2019-05-17T13:11:42.204Z,25.76
2019-05-17T13:14:10.705Z,26.11
2019-05-17T13:16:39.255Z,25.73
2019-05-17T13:19:07.879Z,24.67
2019-05-17T13:21:36.406Z,25.29
2019-05-17T13:24:05.040Z,25.54
2019-05-17T13:26:33.569Z,25.54
2019-05-17T13:29:02.110Z,25.55
2019-05-17T13:31:30.584Z,25.43
2019-05-17T13:33:59.102Z,25.45
2019-05-17T13:36:27.723Z,25.10
2019-05-17T13:38:56.210Z,26.00
2019-05-17T13:41:24.762Z,25.77
2019-05-17T13:43:53.299Z,25.38
2019-05-17T13:46:32.842Z,25.44
2019-05-17T13:48:52.080Z,25.56
2019-05-17T13:51:20.743Z,26.56
2019-05-17T13:53:49.205Z,26.13
2019-05-17T13:56:17.776Z,26.29
2019-05-17T13:58:46.269Z,26.10
2019-05-17T14:01:14.728Z,26.73
2019-05-17T14:03:43.288Z,26.19
2019-05-17T14:06:11.812Z,26.50
2019-05-17T14:08:40.343Z,26.73
2019-05-17T14:11:08.912Z,26.27
2019-05-17T14:13:37.635Z,25.90
2019-05-17T14:16:06.281Z,26.09
2019-05-17T14:18:34.772Z,26.33
2019-05-17T14:21:03.345Z,26.48
2019-05-17T14:23:31.911Z,26.64
2019-05-17T14:26:00.394Z,26.38
2019-05-17T14:28:28.964Z,26.90
2019-05-17T14:30:57.473Z,25.98
2019-05-17T14:33:27.587Z,26.47
2019-05-17T14:35:56.097Z,27.11
2019-05-17T14:38:24.635Z,27.06
2019-05-17T14:41:06.730Z,27.75
2019-05-17T14:43:23.584Z,27.72
2019-05-17T14:45:52.055Z,27.60
2019-05-17T14:48:20.558Z,27.34
2019-05-17T14:50:49.156Z,26.75
2019-05-17T14:53:17.663Z,27.31
2019-05-17T14:55:46.150Z,27.34
2019-05-17T14:58:17.060Z,27.44
2019-05-17T15:00:48.079Z,26.85
2019-05-17T15:03:16.586Z,26.64
2019-05-17T15:05:45.102Z,27.19
2019-05-17T15:08:21.777Z,27.39
2019-05-17T15:10:50.399Z,28.01
2019-05-17T15:24:56.828Z,27.37
2019-05-17T15:27:42.712Z,27.57
2019-05-17T15:30:11.283Z,26.83
2019-05-17T15:32:41.189Z,27.13
2019-05-17T15:35:10.000Z,26.65
2019-05-17T15:37:57.753Z,27.93
2019-05-17T15:40:26.323Z,27.89
2019-05-17T15:42:54.841Z,27.83
2019-05-17T15:45:23.334Z,27.63
2019-05-17T15:47:51.850Z,27.34
2019-05-17T15:50:20.517Z,27.27
2019-05-17T15:52:49.115Z,27.29
2019-05-17T15:55:17.698Z,27.55
2019-05-17T15:57:46.156Z,27.43
2019-05-17T16:00:15.828Z,27.72
2019-05-17T16:02:44.899Z,27.92
2019-05-17T16:05:13.743Z,27.68
2019-05-17T16:07:42.242Z,28.20
2019-05-17T16:10:12.544Z,28.29
2019-05-17T16:12:41.032Z,28.51
2019-05-17T16:15:10.268Z,28.25
2019-05-17T16:17:38.837Z,28.57
2019-05-17T16:20:08.067Z,28.36
2019-05-17T16:22:36.638Z,28.49
2019-05-17T16:25:06.574Z,28.03
2019-05-17T16:27:35.069Z,28.13
2019-05-17T16:30:04.841Z,28.71
2019-05-17T16:32:33.336Z,28.84
2019-05-17T16:35:01.811Z,29.10
2019-05-17T16:37:30.368Z,28.74
2019-05-17T16:39:58.878Z,29.16
2019-05-17T16:42:27.357Z,29.74
2019-05-17T16:44:55.876Z,29.95
2019-05-17T16:47:24.387Z,30.41
2019-05-17T16:49:52.902Z,29.85
2019-05-17T16:52:21.769Z,29.97
2019-05-17T16:54:50.310Z,30.36
2019-05-17T16:57:18.873Z,29.89
2019-05-17T16:59:47.840Z,29.95
2019-05-17T17:02:16.391Z,29.23
2019-05-17T17:04:44.882Z,29.54
2019-05-17T17:07:13.481Z,29.21
2019-05-17T17:09:41.993Z,29.80
2019-05-17T17:12:10.632Z,30.06
2019-05-17T17:14:41.760Z,29.57
2019-05-17T17:17:42.224Z,29.72
2019-05-17T17:26:03.901Z,29.71
2019-05-17T17:31:20.149Z,30.02
2019-05-17T17:33:53.001Z,30.33
2019-05-17T17:36:46.014Z,30.38
2019-05-17T17:39:15.576Z,30.32
2019-05-17T17:42:03.342Z,30.53
2019-05-17T17:55:15.359Z,30.39
2019-05-17T18:00:48.141Z,30.49
2019-05-17T18:03:20.056Z,31.05
2019-05-17T18:05:49.023Z,30.92
2019-05-17T18:08:25.725Z,31.02
2019-05-17T18:10:54.469Z,31.06
2019-05-17T18:13:23.260Z,31.34
2019-05-17T18:15:53.392Z,31.48
2019-05-17T18:18:21.915Z,31.55
2019-05-17T18:20:50.547Z,31.08
2019-05-17T18:23:26.214Z,31.36
2019-05-17T18:25:54.802Z,31.77
2019-05-17T18:31:24.534Z,32.09
2019-05-17T18:33:58.725Z,31.93
2019-05-17T18:36:31.125Z,32.30
2019-05-17T18:39:00.884Z,31.89
2019-05-17T18:41:29.624Z,31.83
2019-05-17T18:44:01.213Z,31.60
2019-05-17T18:46:36.339Z,31.86
2019-05-17T18:49:05.105Z,31.73
2019-05-17T18:51:33.892Z,32.47
2019-05-17T18:54:03.311Z,32.54
2019-05-17T18:59:50.335Z,32.98
2019-05-17T19:02:18.947Z,33.23
2019-05-17T19:04:47.577Z,33.39
2019-05-17T19:07:16.208Z,33.20
2019-05-17T19:09:48.574Z,33.25
2019-05-17T19:12:19.976Z,33.71
2019-05-17T19:14:48.482Z,33.95
2019-05-17T19:17:16.960Z,34.03
2019-05-17T19:19:45.469Z,33.87
2019-05-17T19:22:13.973Z,33.97
2019-05-17T19:24:42.441Z,34.15
2019-05-17T19:27:10.946Z,33.69
2019-05-17T19:29:39.498Z,33.79
2019-05-17T19:32:08.076Z,34.00
2019-05-17T19:34:36.565Z,33.96
2019-05-17T19:37:05.125Z,34.13
2019-05-17T19:39:33.630Z,34.17
2019-05-17T19:42:02.123Z,34.20
2019-05-17T19:44:30.600Z,34.39
2019-05-17T19:46:59.082Z,34.36
2019-05-17T19:49:27.583Z,34.45
2019-05-17T19:51:56.103Z,34.24
2019-05-17T19:54:24.598Z,34.41
2019-05-17T19:56:53.067Z,34.29
2019-05-17T19:59:21.579Z,34.21
2019-05-17T20:01:50.078Z,34.39
2019-05-17T20:04:18.586Z,38.02
2019-05-17T20:06:47.074Z,40.60
2019-05-17T20:09:15.563Z,42.25
2019-05-17T20:11:44.059Z,44.96
2019-05-17T20:14:12.609Z,46.72
2019-05-17T20:16:41.119Z,50.84
2019-05-17T20:19:09.679Z,51.04
2019-05-17T20:21:38.190Z,50.85
2019-05-17T20:24:06.805Z,52.40
2019-05-17T20:26:35.317Z,53.85
2019-05-17T20:29:03.788Z,53.71
2019-05-17T20:31:32.307Z,53.63
2019-05-17T20:34:00.796Z,53.12
2019-05-17T20:36:29.273Z,55.77
2019-05-17T20:38:57.782Z,56.67
2019-05-17T20:41:26.346Z,56.87
2019-05-17T20:43:54.834Z,57.45
2019-05-17T20:46:23.414Z,57.88
2019-05-17T20:48:51.904Z,57.31
2019-05-17T20:51:20.425Z,57.55
2019-05-17T20:53:48.945Z,58.15
2019-05-17T20:56:31.997Z,58.80
2019-05-17T20:58:47.627Z,59.07
2019-05-17T21:01:16.133Z,59.43
2019-05-17T21:03:44.606Z,59.79
2019-05-17T21:06:13.104Z,59.68
2019-05-17T21:08:46.035Z,59.87
2019-05-17T21:11:13.366Z,60.17
2019-05-17T21:13:41.844Z,60.58
2019-05-17T21:16:10.636Z,61.16
2019-05-17T21:18:39.109Z,61.73
2019-05-17T21:21:07.620Z,61.40
2019-05-17T21:23:36.214Z,61.62
2019-05-17T21:26:05.187Z,61.81
2019-05-17T21:28:33.692Z,62.20
2019-05-17T21:31:02.345Z,62.45
2019-05-17T21:33:30.883Z,62.98
2019-05-17T21:35:59.366Z,62.96
2019-05-17T21:38:28.059Z,63.00
2019-05-17T21:40:56.661Z,63.49
2019-05-17T21:43:25.200Z,63.67
2019-05-17T21:46:03.573Z,63.74
2019-05-17T21:48:25.573Z,63.98
2019-05-17T21:50:54.147Z,63.85
2019-05-17T21:53:22.696Z,63.92
2019-05-17T21:55:51.179Z,63.80
2019-05-17T21:58:20.405Z,63.76
2019-05-17T22:00:55.684Z,64.00
2019-05-17T22:03:24.313Z,63.90
2019-05-17T22:05:52.858Z,63.76
2019-05-17T22:08:21.369Z,63.67
2019-05-17T22:10:50.449Z,64.05
2019-05-17T22:13:18.954Z,64.14
2019-05-17T22:15:47.549Z,64.29
2019-05-17T22:18:18.648Z,64.59
2019-05-17T22:20:46.342Z,64.83
2019-05-17T22:23:14.857Z,64.90
2019-05-17T22:25:43.456Z,65.03
2019-05-17T22:28:11.995Z,64.95
2019-05-17T22:30:40.586Z,64.61
2019-05-17T22:33:09.119Z,64.76
2019-05-17T22:35:37.706Z,64.90
2019-05-17T22:38:06.461Z,64.75
2019-05-17T22:40:35.041Z,64.63
2019-05-17T22:43:03.616Z,64.41
2019-05-17T22:45:32.257Z,64.24
2019-05-17T22:48:00.764Z,64.15
2019-05-17T22:50:29.361Z,64.04
2019-05-17T22:52:58.234Z,64.29
2019-05-17T22:55:26.756Z,64.72
2019-05-17T22:57:55.509Z,64.79
2019-05-17T23:00:24.244Z,65.09
2019-05-17T23:02:52.793Z,64.82
2019-05-17T23:05:25.959Z,64.87
2019-05-17T23:07:51.563Z,65.12
2019-05-17T23:10:20.137Z,64.83
2019-05-17T23:12:48.628Z,64.95
2019-05-17T23:15:17.320Z,65.22
2019-05-17T23:17:45.831Z,65.56
2019-05-17T23:20:14.896Z,65.76
2019-05-17T23:22:43.449Z,66.18
2019-05-17T23:25:12.116Z,66.59
2019-05-17T23:27:40.616Z,66.74
2019-05-17T23:30:09.748Z,66.46
2019-05-17T23:32:38.286Z,66.53
2019-05-17T23:35:07.336Z,66.66
2019-05-17T23:37:36.028Z,66.62
2019-05-17T23:40:06.400Z,66.95
2019-05-17T23:42:34.907Z,67.42
2019-05-17T23:45:04.395Z,67.42
2019-05-17T23:47:32.920Z,67.95
2019-05-17T23:50:01.459Z,67.71
2019-05-17T23:52:29.950Z,67.84
2019-05-17T23:54:58.448Z,67.98
2019-05-17T23:57:26.992Z,68.09
2019-05-17T23:59:55.543Z,68.31
